createdAt,value
2016-07-27T00:00:13.534Z,744.41
2016-07-27T00:01:13.523Z,744.38
2016-07-27T00:02:13.514Z,744.41
2016-07-27T00:03:13.516Z,744.38
2016-07-27T00:04:13.498Z,744.38
2016-07-27T00:05:13.502Z,744.41
2016-07-27T00:06:13.483Z,744.36
2016-07-27T00:07:13.475Z,744.34
2016-07-27T00:08:13.467Z,744.36
2016-07-27T00:09:13.471Z,744.38
2016-07-27T00:10:13.451Z,744.37
2016-07-27T00:11:13.444Z,744.35
2016-07-27T00:12:13.446Z,744.36
2016-07-27T00:13:13.440Z,744.33
2016-07-27T00:14:13.431Z,744.32
2016-07-27T00:15:13.424Z,744.28
2016-07-27T00:16:13.405Z,744.3
2016-07-27T00:17:13.408Z,744.33
2016-07-27T00:18:13.399Z,744.32
2016-07-27T00:19:13.382Z,744.34
2016-07-27T00:20:13.375Z,744.34
2016-07-27T00:21:13.367Z,744.34
2016-07-27T00:22:13.369Z,744.34
2016-07-27T00:23:13.360Z,744.34
2016-07-27T00:24:13.353Z,744.32
2016-07-27T00:25:13.336Z,744.34
2016-07-27T00:26:13.330Z,744.32
2016-07-27T00:27:13.319Z,744.3
2016-07-27T00:28:13.323Z,744.34
2016-07-27T00:29:13.303Z,744.28
2016-07-27T00:30:13.301Z,744.25
2016-07-27T00:31:13.298Z,744.26
2016-07-27T00:32:13.281Z,744.25
2016-07-27T00:33:13.272Z,744.23
2016-07-27T00:34:13.264Z,744.22
2016-07-27T00:35:13.257Z,744.2
2016-07-27T00:36:13.259Z,744.2
2016-07-27T00:37:13.249Z,744.21
2016-07-27T00:38:13.232Z,744.2
2016-07-27T00:39:13.225Z,744.19
2016-07-27T00:40:13.217Z,744.19
2016-07-27T00:41:13.210Z,744.19
2016-07-27T00:42:13.212Z,744.15
2016-07-27T00:43:13.205Z,744.17
2016-07-27T00:44:13.185Z,744.16
2016-07-27T00:45:13.178Z,744.18
2016-07-27T00:46:13.179Z,744.16
2016-07-27T00:47:13.170Z,744.19
2016-07-27T00:48:13.154Z,744.13
2016-07-27T00:49:13.145Z,744.15
2016-07-27T00:50:13.137Z,744.15
2016-07-27T00:51:13.128Z,744.14
2016-07-27T00:52:13.121Z,744.12
2016-07-27T00:53:13.113Z,744.1
2016-07-27T00:54:13.107Z,744.06
2016-07-27T00:55:13.108Z,744.08
2016-07-27T00:56:13.100Z,744.11
2016-07-27T00:57:13.094Z,744.05
2016-07-27T00:58:13.085Z,744.08
2016-07-27T00:59:13.066Z,744.04
2016-07-27T01:00:13.071Z,744.05
2016-07-27T01:01:13.063Z,744.05
2016-07-27T01:02:13.056Z,744.07
2016-07-27T01:03:13.037Z,744.09
2016-07-27T01:04:13.030Z,744.03
2016-07-27T01:05:13.034Z,744.11
2016-07-27T01:06:13.026Z,744.11
2016-07-27T01:07:13.019Z,744.07
2016-07-27T01:08:13.001Z,744.05
2016-07-27T01:09:12.992Z,744.06
2016-07-27T01:10:12.996Z,744.09
2016-07-27T01:11:12.989Z,744.06
2016-07-27T01:12:12.970Z,744.03
2016-07-27T01:13:12.973Z,744
2016-07-27T01:14:12.954Z,744.01
2016-07-27T01:15:12.948Z,743.98
2016-07-27T01:16:12.952Z,743.97
2016-07-27T01:17:12.945Z,743.95
2016-07-27T01:18:12.928Z,743.96
2016-07-27T01:19:12.921Z,743.94
2016-07-27T01:20:12.923Z,743.95
2016-07-27T01:21:12.905Z,743.9
2016-07-27T01:22:12.908Z,743.9
2016-07-27T01:23:12.892Z,743.92
2016-07-27T01:24:12.895Z,743.91
2016-07-27T01:25:12.888Z,743.95
2016-07-27T01:26:12.881Z,743.91
2016-07-27T01:27:12.864Z,743.91
2016-07-27T01:28:12.856Z,743.91
2016-07-27T01:29:12.861Z,743.89
2016-07-27T01:30:12.844Z,743.88
2016-07-27T01:31:12.836Z,743.87
2016-07-27T01:32:12.829Z,743.86
2016-07-27T01:33:12.833Z,743.83
2016-07-27T01:34:12.816Z,743.78
2016-07-27T01:35:12.808Z,743.83
2016-07-27T01:36:12.802Z,743.79
2016-07-27T01:37:12.808Z,743.8
2016-07-27T01:38:12.801Z,743.79
2016-07-27T01:39:12.783Z,743.79
2016-07-27T01:40:12.775Z,743.78
2016-07-27T01:41:12.781Z,743.74
2016-07-27T01:42:12.763Z,743.73
2016-07-27T01:43:12.756Z,743.72
2016-07-27T01:44:12.749Z,743.72
2016-07-27T01:45:12.755Z,743.69
2016-07-27T01:46:12.737Z,743.72
2016-07-27T01:47:12.740Z,743.7
2016-07-27T01:48:12.724Z,743.65
2016-07-27T01:49:12.717Z,743.69
2016-07-27T01:50:12.722Z,743.69
2016-07-27T01:51:12.705Z,743.72
2016-07-27T01:52:12.700Z,743.7
2016-07-27T01:53:12.692Z,743.67
2016-07-27T01:54:12.684Z,743.68
2016-07-27T01:55:12.680Z,743.66
2016-07-27T01:56:12.675Z,743.66
2016-07-27T01:57:12.678Z,743.67
2016-07-27T01:58:12.672Z,743.64
2016-07-27T01:59:12.654Z,743.71
2016-07-27T02:00:12.648Z,743.68
2016-07-27T02:01:12.653Z,743.7
2016-07-27T02:02:12.648Z,743.66
2016-07-27T02:03:12.631Z,743.65
2016-07-27T02:04:12.624Z,743.7
2016-07-27T02:05:12.629Z,743.7
2016-07-27T02:06:12.623Z,743.64
2016-07-27T02:07:12.617Z,743.67
2016-07-27T02:08:12.610Z,743.68
2016-07-27T02:09:12.595Z,743.65
2016-07-27T02:10:12.599Z,743.68
2016-07-27T02:11:12.582Z,743.65
2016-07-27T02:12:12.586Z,743.68
2016-07-27T02:13:12.569Z,743.67
2016-07-27T02:14:12.562Z,743.66
2016-07-27T02:15:12.566Z,743.66
2016-07-27T02:16:12.560Z,743.65
2016-07-27T02:17:12.554Z,743.67
2016-07-27T02:18:12.548Z,743.66
2016-07-27T02:19:12.529Z,743.61
2016-07-27T02:20:12.533Z,743.6
2016-07-27T02:21:12.516Z,743.64
2016-07-27T02:22:12.508Z,743.66
2016-07-27T02:23:12.515Z,743.65
2016-07-27T02:24:12.509Z,743.61
2016-07-27T02:25:12.491Z,743.64
2016-07-27T02:26:12.496Z,743.62
2016-07-27T02:27:12.479Z,743.61
2016-07-27T02:28:12.484Z,743.58
2016-07-27T02:29:12.467Z,743.62
2016-07-27T02:30:12.469Z,743.56
2016-07-27T02:31:12.454Z,743.61
2016-07-27T02:32:12.449Z,743.58
2016-07-27T02:33:12.452Z,743.55
2016-07-27T02:34:12.446Z,743.59
2016-07-27T02:35:12.441Z,743.58
2016-07-27T02:36:12.435Z,743.57
2016-07-27T02:37:12.417Z,743.56
2016-07-27T02:38:12.423Z,743.55
2016-07-27T02:39:12.417Z,743.51
2016-07-27T02:40:12.400Z,743.53
2016-07-27T02:41:12.405Z,743.53
2016-07-27T02:42:12.387Z,743.54
2016-07-27T02:43:12.383Z,743.48
2016-07-27T02:44:12.375Z,743.48
2016-07-27T02:45:12.368Z,743.46
2016-07-27T02:46:12.364Z,743.48
2016-07-27T02:47:12.358Z,743.46
2016-07-27T02:48:12.362Z,743.46
2016-07-27T02:49:12.356Z,743.46
2016-07-27T02:50:12.340Z,743.44
2016-07-27T02:51:12.332Z,743.44
2016-07-27T02:52:12.326Z,743.41
2016-07-27T02:53:12.331Z,743.42
2016-07-27T02:54:12.325Z,743.43
2016-07-27T02:55:12.319Z,743.38
2016-07-27T02:56:12.302Z,743.37
2016-07-27T02:57:12.296Z,743.4
2016-07-27T02:58:12.301Z,743.42
2016-07-27T02:59:12.283Z,743.38
2016-07-27T03:00:12.279Z,743.42
2016-07-27T03:01:12.272Z,743.43
2016-07-27T03:02:12.265Z,743.44
2016-07-27T03:03:12.263Z,743.48
2016-07-27T03:04:12.253Z,743.41
2016-07-27T03:05:12.247Z,743.43
2016-07-27T03:06:12.253Z,743.48
2016-07-27T03:07:12.247Z,743.46
2016-07-27T03:08:12.230Z,743.44
2016-07-27T03:09:12.224Z,743.47
2016-07-27T03:10:12.229Z,743.45
2016-07-27T03:11:12.222Z,743.46
2016-07-27T03:12:12.217Z,743.43
2016-07-27T03:13:12.200Z,743.45
2016-07-27T03:14:12.193Z,743.49
2016-07-27T03:15:12.200Z,743.47
2016-07-27T03:16:12.195Z,743.51
2016-07-27T03:17:12.188Z,743.48
2016-07-27T03:18:12.171Z,743.47
2016-07-27T03:19:12.177Z,743.49
2016-07-27T03:20:12.171Z,743.49
2016-07-27T03:21:12.164Z,743.49
2016-07-27T03:22:12.147Z,743.48
2016-07-27T03:23:12.143Z,743.49
2016-07-27T03:24:12.136Z,743.46
2016-07-27T03:25:12.129Z,743.5
2016-07-27T03:26:12.133Z,743.5
2016-07-27T03:27:12.117Z,743.48
2016-07-27T03:28:12.121Z,743.44
2016-07-27T03:29:12.103Z,743.43
2016-07-27T03:30:12.108Z,743.44
2016-07-27T03:31:12.092Z,743.46
2016-07-27T03:32:12.085Z,743.46
2016-07-27T03:33:12.090Z,743.45
2016-07-27T03:34:12.073Z,743.45
2016-07-27T03:35:12.064Z,743.5
2016-07-27T03:36:12.070Z,743.47
2016-07-27T03:37:12.063Z,743.54
2016-07-27T03:38:12.047Z,743.47
2016-07-27T03:39:12.038Z,743.48
2016-07-27T03:40:12.032Z,743.43
2016-07-27T03:41:12.037Z,743.5
2016-07-27T03:42:12.030Z,743.45
2016-07-27T03:43:12.012Z,743.41
2016-07-27T03:44:12.016Z,743.42
2016-07-27T03:45:11.998Z,743.42
2016-07-27T03:46:12.008Z,743.43
2016-07-27T03:47:11.996Z,743.43
2016-07-27T03:48:11.989Z,743.42
2016-07-27T03:49:11.973Z,743.41
2016-07-27T03:50:11.969Z,743.42
2016-07-27T03:51:11.958Z,743.4
2016-07-27T03:52:11.952Z,743.42
2016-07-27T03:53:11.956Z,743.41
2016-07-27T03:54:11.939Z,743.42
2016-07-27T03:55:11.933Z,743.39
2016-07-27T03:56:11.938Z,743.4
2016-07-27T03:57:11.930Z,743.37
2016-07-27T03:58:11.924Z,743.38
2016-07-27T03:59:11.907Z,743.35
2016-07-27T04:00:11.919Z,743.37
2016-07-27T04:01:11.892Z,743.35
2016-07-27T04:02:11.899Z,743.35
2016-07-27T04:03:11.890Z,743.36
2016-07-27T04:04:11.884Z,743.35
2016-07-27T04:05:11.864Z,743.34
2016-07-27T04:06:11.869Z,743.35
2016-07-27T04:07:11.852Z,743.32
2016-07-27T04:08:11.856Z,743.37
2016-07-27T04:09:11.849Z,743.35
2016-07-27T04:10:11.843Z,743.34
2016-07-27T04:11:11.827Z,743.34
2016-07-27T04:12:11.830Z,743.33
2016-07-27T04:13:11.812Z,743.32
2016-07-27T04:14:11.816Z,743.36
2016-07-27T04:15:11.801Z,743.33
2016-07-27T04:16:11.803Z,743.32
2016-07-27T04:17:11.786Z,743.31
2016-07-27T04:18:11.779Z,743.28
2016-07-27T04:19:11.773Z,743.31
2016-07-27T04:20:11.766Z,743.29
2016-07-27T04:21:11.759Z,743.27
2016-07-27T04:22:11.765Z,743.25
2016-07-27T04:23:11.757Z,743.29
2016-07-27T04:24:11.752Z,743.29
2016-07-27T04:25:11.735Z,743.31
2016-07-27T04:26:11.729Z,743.29
2016-07-27T04:27:11.722Z,743.28
2016-07-27T04:28:11.715Z,743.31
2016-07-27T04:29:11.721Z,743.29
2016-07-27T04:30:11.713Z,743.3
2016-07-27T04:31:11.707Z,743.33
2016-07-27T04:32:11.701Z,743.26
2016-07-27T04:33:11.695Z,743.3
2016-07-27T04:34:11.686Z,743.27
2016-07-27T04:35:11.680Z,743.28
2016-07-27T04:36:11.664Z,743.31
2016-07-27T04:38:11.650Z,743.3
2016-07-27T04:39:11.656Z,743.3
2016-07-27T04:40:11.639Z,743.29
2016-07-27T04:41:11.643Z,743.31
2016-07-27T04:42:11.626Z,743.32
2016-07-27T04:43:11.625Z,743.32
2016-07-27T04:44:11.614Z,743.34
2016-07-27T04:45:11.619Z,743.3
2016-07-27T04:46:11.600Z,743.36
2016-07-27T04:47:11.598Z,743.35
2016-07-27T04:48:11.600Z,743.35
2016-07-27T04:49:11.595Z,743.33
2016-07-27T04:50:11.589Z,743.35
2016-07-27T04:51:11.573Z,743.35
2016-07-27T04:52:11.577Z,743.34
2016-07-27T04:53:11.561Z,743.33
2016-07-27T04:54:11.566Z,743.37
2016-07-27T04:55:11.549Z,743.36
2016-07-27T04:56:11.543Z,743.38
2016-07-27T04:57:11.538Z,743.4
2016-07-27T04:58:11.541Z,743.38
2016-07-27T04:59:11.537Z,743.38
2016-07-27T05:00:11.520Z,743.41
2016-07-27T05:01:11.526Z,743.4
2016-07-27T05:02:11.512Z,743.38
2016-07-27T05:03:11.513Z,743.4
2016-07-27T05:04:11.509Z,743.43
2016-07-27T05:05:11.492Z,743.46
2016-07-27T05:06:11.496Z,743.44
2016-07-27T05:07:11.481Z,743.41
2016-07-27T05:08:11.475Z,743.43
2016-07-27T05:09:11.468Z,743.48
2016-07-27T05:10:11.461Z,743.47
2016-07-27T05:11:11.456Z,743.45
2016-07-27T05:12:11.449Z,743.46
2016-07-27T05:13:11.455Z,743.48
2016-07-27T05:14:11.448Z,743.45
2016-07-27T05:15:11.431Z,743.45
2016-07-27T05:16:11.436Z,743.46
2016-07-27T05:17:11.418Z,743.5
2016-07-27T05:18:11.422Z,743.46
2016-07-27T05:19:11.405Z,743.42
2016-07-27T05:20:11.410Z,743.49
2016-07-27T05:21:11.391Z,743.46
2016-07-27T05:22:11.396Z,743.5
2016-07-27T05:23:11.378Z,743.48
2016-07-27T05:24:11.383Z,743.5
2016-07-27T05:25:11.366Z,743.49
2016-07-27T05:26:11.360Z,743.5
2016-07-27T05:27:11.354Z,743.45
2016-07-27T05:28:11.347Z,743.45
2016-07-27T05:29:11.340Z,743.47
2016-07-27T05:30:11.345Z,743.46
2016-07-27T05:31:11.339Z,743.47
2016-07-27T05:32:11.320Z,743.47
2016-07-27T05:33:11.315Z,743.51
2016-07-27T05:34:11.308Z,743.46
2016-07-27T05:35:11.314Z,743.47
2016-07-27T05:36:11.296Z,743.51
2016-07-27T05:37:11.302Z,743.51
2016-07-27T05:38:11.284Z,743.5
2016-07-27T05:39:11.279Z,743.49
2016-07-27T05:40:11.273Z,743.49
2016-07-27T05:41:11.270Z,743.5
2016-07-27T05:42:11.272Z,743.49
2016-07-27T05:43:11.267Z,743.48
2016-07-27T05:44:11.250Z,743.47
2016-07-27T05:45:11.243Z,743.47
2016-07-27T05:46:11.250Z,743.47
2016-07-27T05:47:11.232Z,743.49
2016-07-27T05:48:11.237Z,743.47
2016-07-27T05:49:11.222Z,743.51
2016-07-27T05:50:11.217Z,743.52
2016-07-27T05:51:11.220Z,743.51
2016-07-27T05:52:11.224Z,743.53
2016-07-27T05:53:11.210Z,743.52
2016-07-27T05:54:11.203Z,743.52
2016-07-27T05:55:11.198Z,743.5
2016-07-27T05:56:11.182Z,743.47
2016-07-27T05:57:11.176Z,743.51
2016-07-27T05:58:11.170Z,743.52
2016-07-27T05:59:11.177Z,743.51
2016-07-27T06:00:11.172Z,743.53
2016-07-27T06:01:11.156Z,743.55
2016-07-27T06:02:11.151Z,743.54
2016-07-27T06:03:11.145Z,743.51
2016-07-27T06:04:11.151Z,743.54
2016-07-27T06:05:11.146Z,743.5
2016-07-27T06:06:11.130Z,743.53
2016-07-27T06:07:11.126Z,743.53
2016-07-27T06:08:11.131Z,743.54
2016-07-27T06:09:11.126Z,743.53
2016-07-27T06:10:11.122Z,743.52
2016-07-27T06:11:11.116Z,743.57
2016-07-27T06:12:11.100Z,743.55
2016-07-27T06:13:11.106Z,743.57
2016-07-27T06:14:11.091Z,743.55
2016-07-27T06:15:11.098Z,743.54
2016-07-27T06:16:11.092Z,743.55
2016-07-27T06:17:11.077Z,743.55
2016-07-27T06:18:11.083Z,743.53
2016-07-27T06:19:11.079Z,743.56
2016-07-27T06:20:11.061Z,743.56
2016-07-27T06:21:11.059Z,743.54
2016-07-27T06:22:11.064Z,743.58
2016-07-27T06:23:11.049Z,743.53
2016-07-27T06:24:11.054Z,743.6
2016-07-27T06:25:11.039Z,743.54
2016-07-27T06:26:11.035Z,743.56
2016-07-27T06:27:11.028Z,743.59
2016-07-27T06:28:11.024Z,743.58
2016-07-27T06:29:11.021Z,743.59
2016-07-27T06:30:11.027Z,743.59
2016-07-27T06:31:11.022Z,743.57
2016-07-27T06:32:11.017Z,743.56
2016-07-27T06:33:11.001Z,743.57
2016-07-27T06:34:11.007Z,743.59
2016-07-27T06:35:11.002Z,743.58
2016-07-27T06:36:10.986Z,743.62
2016-07-27T06:37:10.993Z,743.57
2016-07-27T06:38:10.987Z,743.6
2016-07-27T06:39:10.983Z,743.59
2016-07-27T06:40:10.968Z,743.6
2016-07-27T06:41:10.964Z,743.61
2016-07-27T06:42:10.968Z,743.64
2016-07-27T06:43:10.964Z,743.61
2016-07-27T06:44:10.954Z,743.58
2016-07-27T06:45:10.954Z,743.64
2016-07-27T06:46:10.939Z,743.63
2016-07-27T06:47:10.933Z,743.6
2016-07-27T06:48:10.931Z,743.58
2016-07-27T06:49:10.924Z,743.62
2016-07-27T06:50:10.930Z,743.59
2016-07-27T06:51:10.915Z,743.59
2016-07-27T06:52:10.920Z,743.58
2016-07-27T06:53:10.915Z,743.58
2016-07-27T06:54:10.911Z,743.6
2016-07-27T06:55:10.907Z,743.6
2016-07-27T06:56:10.902Z,743.57
2016-07-27T06:57:10.897Z,743.58
2016-07-27T06:58:10.892Z,743.58
2016-07-27T06:59:10.888Z,743.59
2016-07-27T07:00:10.872Z,743.57
2016-07-27T07:01:10.867Z,743.63
2016-07-27T07:02:10.863Z,743.62
2016-07-27T07:03:10.870Z,743.59
2016-07-27T07:04:10.864Z,743.6
2016-07-27T07:05:10.849Z,743.62
2016-07-27T07:06:10.856Z,743.58
2016-07-27T07:07:10.850Z,743.57
2016-07-27T07:08:10.835Z,743.57
2016-07-27T07:09:10.842Z,743.58
2016-07-27T07:10:10.827Z,743.56
2016-07-27T07:11:10.832Z,743.57
2016-07-27T07:12:10.818Z,743.55
2016-07-27T07:13:10.824Z,743.58
2016-07-27T07:14:10.819Z,743.62
2016-07-27T07:15:10.803Z,743.64
2016-07-27T07:16:10.799Z,743.63
2016-07-27T07:17:10.806Z,743.61
2016-07-27T07:18:10.789Z,743.61
2016-07-27T07:19:10.797Z,743.62
2016-07-27T07:20:10.783Z,743.62
2016-07-27T07:21:10.777Z,743.62
2016-07-27T07:22:10.783Z,743.59
2016-07-27T07:23:10.778Z,743.64
2016-07-27T07:24:10.775Z,743.63
2016-07-27T07:25:10.758Z,743.69
2016-07-27T07:26:10.753Z,743.64
2016-07-27T07:27:10.760Z,743.63
2016-07-27T07:28:10.754Z,743.62
2016-07-27T07:29:10.738Z,743.63
2016-07-27T07:30:10.745Z,743.62
2016-07-27T07:31:10.729Z,743.64
2016-07-27T07:32:10.725Z,743.63
2016-07-27T07:33:10.730Z,743.63
2016-07-27T07:34:10.726Z,743.66
2016-07-27T07:35:10.720Z,743.64
2016-07-27T07:36:10.717Z,743.62
2016-07-27T07:37:10.712Z,743.65
2016-07-27T07:38:10.708Z,743.65
2016-07-27T07:39:10.708Z,743.66
2016-07-27T07:40:10.698Z,743.62
2016-07-27T07:41:10.693Z,743.63
2016-07-27T07:42:10.688Z,743.65
2016-07-27T07:43:10.673Z,743.62
2016-07-27T07:44:10.667Z,743.66
2016-07-27T07:45:10.664Z,743.64
2016-07-27T07:46:10.670Z,743.63
2016-07-27T07:47:10.652Z,743.64
2016-07-27T07:48:10.660Z,743.61
2016-07-27T07:49:10.644Z,743.64
2016-07-27T07:50:10.651Z,743.72
2016-07-27T07:51:10.636Z,743.74
2016-07-27T07:52:10.631Z,743.58
2016-07-27T07:53:10.638Z,743.56
2016-07-27T07:54:10.638Z,743.56
2016-07-27T07:55:10.618Z,743.57
2016-07-27T07:56:10.613Z,743.58
2016-07-27T07:57:10.610Z,743.57
2016-07-27T07:58:10.606Z,743.59
2016-07-27T07:59:10.602Z,743.6
2016-07-27T08:00:10.598Z,743.6
2016-07-27T08:01:10.606Z,743.53
2016-07-27T08:02:10.602Z,743.55
2016-07-27T08:03:10.588Z,743.59
2016-07-27T08:04:10.596Z,743.57
2016-07-27T08:05:10.592Z,743.55
2016-07-27T08:06:10.587Z,743.6
2016-07-27T08:07:10.585Z,743.62
2016-07-27T08:08:10.570Z,743.69
2016-07-27T08:09:10.577Z,743.72
2016-07-27T08:10:10.573Z,743.69
2016-07-27T08:11:10.561Z,743.72
2016-07-27T08:12:10.568Z,743.71
2016-07-27T08:13:10.562Z,743.68
2016-07-27T08:14:10.549Z,743.67
2016-07-27T08:15:10.556Z,743.66
2016-07-27T08:16:10.551Z,743.7
2016-07-27T08:17:10.549Z,743.7
2016-07-27T08:18:10.545Z,743.69
2016-07-27T08:19:10.532Z,743.71
2016-07-27T08:20:10.532Z,743.67
2016-07-27T08:21:10.524Z,743.68
2016-07-27T08:22:10.533Z,743.72
2016-07-27T08:23:10.529Z,743.67
2016-07-27T08:24:10.526Z,743.69
2016-07-27T08:25:10.512Z,743.72
2016-07-27T08:26:10.510Z,743.7
2016-07-27T08:27:10.519Z,743.68
2016-07-27T08:28:10.515Z,743.77
2016-07-27T08:29:10.513Z,743.74
2016-07-27T08:30:10.501Z,743.74
2016-07-27T08:31:10.508Z,743.74
2016-07-27T08:32:10.505Z,743.75
2016-07-27T08:33:10.496Z,743.75
2016-07-27T08:34:10.491Z,743.76
2016-07-27T08:35:10.498Z,743.76
2016-07-27T08:36:10.496Z,743.74
2016-07-27T08:37:10.494Z,743.77
2016-07-27T08:38:10.481Z,743.8
2016-07-27T08:39:10.477Z,743.73
2016-07-27T08:40:10.487Z,743.75
2016-07-27T08:41:10.485Z,743.75
2016-07-27T08:42:10.482Z,743.75
2016-07-27T08:43:10.470Z,743.76
2016-07-27T08:44:10.479Z,743.74
2016-07-27T08:45:10.477Z,743.74
2016-07-27T08:46:10.463Z,743.73
2016-07-27T08:47:10.473Z,743.71
2016-07-27T08:48:10.461Z,743.77
2016-07-27T08:49:10.470Z,743.7
2016-07-27T08:50:10.456Z,743.7
2016-07-27T08:51:10.454Z,743.67
2016-07-27T08:52:10.454Z,743.78
2016-07-27T08:53:10.451Z,743.81
2016-07-27T08:54:10.450Z,743.72
2016-07-27T08:55:10.458Z,743.82
2016-07-27T08:56:10.462Z,743.81
2016-07-27T08:57:10.454Z,743.7
2016-07-27T08:58:10.442Z,743.74
2016-07-27T08:59:10.451Z,743.64
2016-07-27T09:00:10.439Z,743.66
2016-07-27T09:01:10.447Z,743.68
2016-07-27T09:02:10.445Z,743.7
2016-07-27T09:03:10.443Z,743.78
2016-07-27T09:04:10.440Z,743.82
2016-07-27T09:05:10.438Z,743.8
2016-07-27T09:06:10.426Z,743.78
2016-07-27T09:07:10.423Z,743.79
2016-07-27T09:08:10.420Z,743.77
2016-07-27T09:09:10.419Z,743.73
2016-07-27T09:10:10.427Z,743.79
2016-07-27T09:11:10.426Z,743.77
2016-07-27T09:12:10.425Z,743.8
2016-07-27T09:13:10.422Z,743.83
2016-07-27T09:14:10.420Z,743.87
2016-07-27T09:15:10.435Z,743.82
2016-07-27T09:16:10.405Z,743.93
2016-07-27T09:17:10.401Z,743.88
2016-07-27T09:18:10.400Z,743.83
2016-07-27T09:19:10.398Z,743.78
2016-07-27T09:20:10.407Z,743.85
2016-07-27T09:21:10.398Z,743.82
2016-07-27T09:22:10.390Z,743.8
2016-07-27T09:23:10.399Z,743.81
2016-07-27T09:24:10.387Z,743.81
2016-07-27T09:25:10.384Z,743.84
2016-07-27T09:26:10.382Z,743.85
2016-07-27T09:27:10.390Z,743.84
2016-07-27T09:28:10.377Z,743.8
2016-07-27T09:29:10.386Z,743.8
2016-07-27T09:30:10.372Z,743.77
2016-07-27T09:31:10.381Z,743.8
2016-07-27T09:32:10.379Z,743.76
2016-07-27T09:33:10.366Z,743.79
2016-07-27T09:34:10.373Z,743.78
2016-07-27T09:35:10.371Z,743.82
2016-07-27T09:36:10.368Z,743.83
2016-07-27T09:37:10.354Z,743.81
2016-07-27T09:38:10.352Z,743.82
2016-07-27T09:39:10.360Z,743.77
2016-07-27T09:40:10.346Z,743.85
2016-07-27T09:41:10.343Z,743.82
2016-07-27T09:42:10.352Z,743.82
2016-07-27T09:43:10.336Z,743.89
2016-07-27T09:44:10.333Z,743.78
2016-07-27T09:45:10.342Z,743.79
2016-07-27T09:46:10.328Z,743.78
2016-07-27T09:47:10.326Z,743.84
2016-07-27T09:48:10.323Z,743.82
2016-07-27T09:49:10.330Z,743.76
2016-07-27T09:50:10.315Z,743.75
2016-07-27T09:51:10.324Z,743.75
2016-07-27T09:52:10.308Z,743.76
2016-07-27T09:53:10.306Z,743.8
2016-07-27T09:54:10.313Z,743.79
2016-07-27T09:55:10.297Z,743.77
2016-07-27T09:56:10.305Z,743.74
2016-07-27T09:57:10.301Z,743.83
2016-07-27T09:58:10.298Z,743.77
2016-07-27T09:59:10.291Z,743.83
2016-07-27T10:00:10.278Z,743.8
2016-07-27T10:01:10.284Z,743.8
2016-07-27T10:02:10.279Z,743.8
2016-07-27T10:03:10.263Z,743.81
2016-07-27T10:04:10.269Z,743.83
2016-07-27T10:05:10.264Z,743.83
2016-07-27T10:06:10.258Z,743.76
2016-07-27T10:07:10.244Z,743.84
2016-07-27T10:08:10.250Z,743.81
2016-07-27T10:09:10.234Z,743.77
2016-07-27T10:10:10.240Z,743.8
2016-07-27T10:11:10.224Z,743.8
2016-07-27T10:12:10.232Z,743.79
2016-07-27T10:13:10.227Z,743.84
2016-07-27T10:14:10.211Z,743.92
2016-07-27T10:15:10.219Z,743.79
2016-07-27T10:16:10.215Z,743.79
2016-07-27T10:17:10.210Z,743.73
2016-07-27T10:18:10.198Z,743.71
2016-07-27T10:19:10.193Z,743.74
2016-07-27T10:20:10.189Z,743.73
2016-07-27T10:21:10.185Z,743.77
2016-07-27T10:22:10.182Z,743.79
2016-07-27T10:23:10.177Z,743.62
2016-07-27T10:24:10.174Z,743.74
2016-07-27T10:25:10.182Z,743.76
2016-07-27T10:26:10.168Z,743.75
2016-07-27T10:27:10.177Z,743.75
2016-07-27T10:28:10.173Z,743.75
2016-07-27T10:29:10.160Z,743.61
2016-07-27T10:30:10.158Z,743.63
2016-07-27T10:31:10.166Z,743.65
2016-07-27T10:32:10.152Z,743.61
2016-07-27T10:33:10.148Z,743.57
2016-07-27T10:34:10.171Z,743.59
2016-07-27T10:35:10.144Z,743.56
2016-07-27T10:36:10.151Z,743.55
2016-07-27T10:37:10.149Z,743.55
2016-07-27T10:38:10.146Z,743.55
2016-07-27T10:39:10.132Z,743.66
2016-07-27T10:40:10.128Z,743.6
2016-07-27T10:41:10.127Z,743.6
2016-07-27T10:42:10.125Z,743.54
2016-07-27T10:43:10.120Z,743.5
2016-07-27T10:44:10.118Z,743.52
2016-07-27T10:45:10.120Z,743.62
2016-07-27T10:46:10.114Z,743.67
2016-07-27T10:47:10.111Z,743.65
2016-07-27T10:48:10.120Z,743.63
2016-07-27T10:49:10.106Z,743.57
2016-07-27T10:50:10.103Z,743.6
2016-07-27T10:51:10.111Z,743.55
2016-07-27T10:52:10.110Z,743.55
2016-07-27T10:53:10.106Z,743.54
2016-07-27T10:54:10.094Z,743.59
2016-07-27T10:55:10.102Z,743.48
2016-07-27T10:56:10.100Z,743.52
2016-07-27T10:57:10.096Z,743.49
2016-07-27T10:58:10.083Z,743.47
2016-07-27T10:59:10.082Z,743.51
2016-07-27T11:00:10.090Z,743.53
2016-07-27T11:01:10.074Z,743.61
2016-07-27T11:02:10.074Z,743.6
2016-07-27T11:03:10.082Z,743.62
2016-07-27T11:04:10.070Z,743.56
2016-07-27T11:05:10.066Z,743.58
2016-07-27T11:06:10.063Z,743.56
2016-07-27T11:07:10.073Z,743.59
2016-07-27T11:08:10.060Z,743.52
2016-07-27T11:09:10.056Z,743.49
2016-07-27T11:10:10.054Z,743.41
2016-07-27T11:11:10.053Z,743.39
2016-07-27T11:12:10.050Z,743.4
2016-07-27T11:13:10.059Z,743.39
2016-07-27T11:14:10.057Z,743.41
2016-07-27T11:15:10.044Z,743.42
2016-07-27T11:16:10.050Z,743.38
2016-07-27T11:17:10.036Z,743.41
2016-07-27T11:18:10.046Z,743.44
2016-07-27T11:19:10.030Z,743.44
2016-07-27T11:20:10.027Z,743.43
2016-07-27T11:21:10.036Z,743.42
2016-07-27T11:22:10.023Z,743.39
2016-07-27T11:23:10.019Z,743.35
2016-07-27T11:24:10.035Z,743.36
2016-07-27T11:25:10.014Z,743.39
2016-07-27T11:26:10.021Z,743.37
2016-07-27T11:27:10.006Z,743.37
2016-07-27T11:28:10.005Z,743.38
2016-07-27T11:29:10.012Z,743.36
2016-07-27T11:30:10.009Z,743.37
2016-07-27T11:31:10.006Z,743.38
2016-07-27T11:32:10.004Z,743.38
2016-07-27T11:33:10.001Z,743.38
2016-07-27T11:34:09.986Z,743.37
2016-07-27T11:35:09.986Z,743.4
2016-07-27T11:36:09.981Z,743.44
2016-07-27T11:37:09.990Z,743.5
2016-07-27T11:38:09.987Z,743.46
2016-07-27T11:39:09.971Z,743.49
2016-07-27T11:40:09.969Z,743.42
2016-07-27T11:41:09.965Z,743.43
2016-07-27T11:42:09.964Z,743.34
2016-07-27T11:43:09.962Z,743.32
2016-07-27T11:44:09.969Z,743.36
2016-07-27T11:45:09.965Z,743.32
2016-07-27T11:46:09.963Z,743.31
2016-07-27T11:47:09.950Z,743.33
2016-07-27T11:48:09.958Z,743.33
2016-07-27T11:49:09.954Z,743.27
2016-07-27T11:50:09.943Z,743.28
2016-07-27T11:51:09.953Z,743.31
2016-07-27T11:52:09.945Z,743.29
2016-07-27T11:53:09.942Z,743.29
2016-07-27T11:54:09.927Z,743.29
2016-07-27T11:55:09.924Z,743.27
2016-07-27T11:56:09.921Z,743.22
2016-07-27T11:57:09.930Z,743.26
2016-07-27T11:58:09.937Z,743.25
2016-07-27T11:59:09.910Z,743.29
2016-07-27T12:00:09.919Z,743.29
2016-07-27T12:01:09.914Z,743.34
2016-07-27T12:02:09.899Z,743.38
2016-07-27T12:03:09.894Z,743.39
2016-07-27T12:04:09.902Z,743.38
2016-07-27T12:05:09.896Z,743.37
2016-07-27T12:06:09.883Z,743.32
2016-07-27T12:07:09.880Z,743.28
2016-07-27T12:08:09.886Z,743.3
2016-07-27T12:09:09.883Z,743.31
2016-07-27T12:10:09.879Z,743.26
2016-07-27T12:11:09.864Z,743.24
2016-07-27T12:12:09.859Z,743.17
2016-07-27T12:13:09.857Z,743.2
2016-07-27T12:14:09.852Z,743.18
2016-07-27T12:15:09.848Z,743.19
2016-07-27T12:16:09.855Z,743.17
2016-07-27T12:17:09.851Z,743.19
2016-07-27T12:18:09.837Z,743.22
2016-07-27T12:19:09.833Z,743.24
2016-07-27T12:20:09.840Z,743.16
2016-07-27T12:21:09.825Z,743.17
2016-07-27T12:22:09.833Z,743.2
2016-07-27T12:23:09.818Z,743.18
2016-07-27T12:24:09.815Z,743.12
2016-07-27T12:25:09.822Z,743.12
2016-07-27T12:26:09.806Z,743.16
2016-07-27T12:27:09.815Z,743.17
2016-07-27T12:28:09.812Z,743.16
2016-07-27T12:29:09.797Z,743.15
2016-07-27T12:30:09.804Z,743.16
2016-07-27T12:31:09.790Z,743.08
2016-07-27T12:32:09.797Z,743.11